Nazca — ZDGK2 — position and weather

sailwx.info

Track history (hours):
 
Tides and Currents Weather Stations Pressure Air Temp Water Temp Dewpoint Dewpoint Depression Visibility Wind Speed Wind Dir Waves Ship Positions

Nazca

Last reported at 2015-Jul-06 07:11 UTC. Time now 2015-Jul-06 09:16 UTC.
Position N 37°48' E 023°46'.

Length 24 m.

Type: Sailing vessel. MMSI: 236255000.

Date/timePositionNaut miles runAvg speedWind from/ knotsBaromVisibWave heightAir tempDewpointWater temp
2015-Jul-06 07:11N 37°48' E 023°46'0 0.0
2015-Jul-06 06:29N 37°48' E 023°46'0 0.0
2015-Jul-05 14:33N 37°48' E 023°46'0 0.0
2015-Jul-05 12:30N 37°48' E 023°46'0 0.0
2015-Jul-05 11:30N 37°48' E 023°46'0 0.0
2015-Jul-05 09:33N 37°48' E 023°46'0 0.0
2015-Jul-05 08:12N 37°48' E 023°46'0 0.0
2015-Jul-05 07:24N 37°48' E 023°46'0 0.0
2015-Jul-05 06:18N 37°48' E 023°46'0 0.0
2015-Jul-04 09:07N 37°48' E 023°46'0 0.0
2015-Jul-04 07:31N 37°48' E 023°46'0 0.0
2015-Jul-03 16:18N 37°48' E 023°46'3 4.6
2015-Jul-03 15:33N 37°50' E 023°43'9 8.6
2015-Jul-03 14:33N 37°57' E 023°36'2 1.5
2015-Jul-03 13:27N 37°58' E 023°34'0 0.0
2015-Jul-03 12:33N 37°58' E 023°34'0 0.0
2015-Jul-03 11:33N 37°58' E 023°34'0 0.0
2015-Jul-03 10:33N 37°58' E 023°34'1 0.8
2015-Jul-03 09:33N 37°57' E 023°35'8 8.4
2015-Jul-03 08:33N 37°51' E 023°42'4 3.8
2015-Jul-03 07:25N 37°48' E 023°46'0 0.0
2015-Jul-03 06:28N 37°48' E 023°46'0 0.0
2015-Jul-02 15:04N 37°48' E 023°46'0 0.0
2015-Jul-02 14:28N 37°48' E 023°46'0 0.0
2015-Jul-02 13:31N 37°48' E 023°46'0 0.0
2015-Jul-02 12:04N 37°48' E 023°46'0 0.0
2015-Jul-02 10:16N 37°48' E 023°46'0 0.0
2015-Jul-02 07:31N 37°48' E 023°46'0 0.0
2015-Jul-02 06:10N 37°48' E 023°46'0 0.0
2015-Jul-01 14:31N 37°48' E 023°46'0 0.0
2015-Jul-01 10:31N 37°48' E 023°46'0 0.0
2015-Jul-01 09:25N 37°48' E 023°46'0 0.0
2015-Jul-01 08:31N 37°48' E 023°46'0 0.0
2015-Jul-01 07:19N 37°48' E 023°46'0 0.0
2015-Jun-30 13:20N 37°48' E 023°46'0 0.0
2015-Jun-30 09:11N 37°48' E 023°46'0 0.0
2015-Jun-30 08:05N 37°48' E 023°46'0 0.0
2015-Jun-30 07:32N 37°48' E 023°46'0 0.0
2015-Jun-30 06:32N 37°48' E 023°46'0 0.0
2015-Jun-29 17:29N 37°48' E 023°46'0 0.0
2015-Jun-29 15:11N 37°48' E 023°46'0 0.0
2015-Jun-29 14:05N 37°48' E 023°46'0 0.0
2015-Jun-29 11:29N 37°48' E 023°46'  
Track history (hours):
 
Tides and Currents Weather Stations Pressure Air Temp Water Temp Dewpoint Dewpoint Depression Visibility Wind Speed Wind Dir Waves Ship Positions

Nazca

Last reported at 2015-Jul-06 07:11 UTC. Time now 2015-Jul-06 09:16 UTC.
Position N 37°48' E 023°46'.

Length 24 m.

Type: Sailing vessel. MMSI: 236255000.

Date/timePositionNaut miles runAvg speedWind from/ knotsBaromVisibWave heightAir tempDewpointWater temp
2015-Jul-06 07:11N 37°48' E 023°46'0 0.0
2015-Jul-06 06:29N 37°48' E 023°46'0 0.0
2015-Jul-05 14:33N 37°48' E 023°46'0 0.0
2015-Jul-05 12:30N 37°48' E 023°46'0 0.0
2015-Jul-05 11:30N 37°48' E 023°46'0 0.0
2015-Jul-05 09:33N 37°48' E 023°46'0 0.0
2015-Jul-05 08:12N 37°48' E 023°46'0 0.0
2015-Jul-05 07:24N 37°48' E 023°46'0 0.0
2015-Jul-05 06:18N 37°48' E 023°46'0 0.0
2015-Jul-04 09:07N 37°48' E 023°46'0 0.0
2015-Jul-04 07:31N 37°48' E 023°46'0 0.0
2015-Jul-03 16:18N 37°48' E 023°46'3 4.6
2015-Jul-03 15:33N 37°50' E 023°43'9 8.6
2015-Jul-03 14:33N 37°57' E 023°36'2 1.5
2015-Jul-03 13:27N 37°58' E 023°34'0 0.0
2015-Jul-03 12:33N 37°58' E 023°34'0 0.0
2015-Jul-03 11:33N 37°58' E 023°34'0 0.0
2015-Jul-03 10:33N 37°58' E 023°34'1 0.8
2015-Jul-03 09:33N 37°57' E 023°35'8 8.4
2015-Jul-03 08:33N 37°51' E 023°42'4 3.8
2015-Jul-03 07:25N 37°48' E 023°46'0 0.0
2015-Jul-03 06:28N 37°48' E 023°46'0 0.0
2015-Jul-02 15:04N 37°48' E 023°46'0 0.0
2015-Jul-02 14:28N 37°48' E 023°46'0 0.0
2015-Jul-02 13:31N 37°48' E 023°46'0 0.0
2015-Jul-02 12:04N 37°48' E 023°46'0 0.0
2015-Jul-02 10:16N 37°48' E 023°46'0 0.0
2015-Jul-02 07:31N 37°48' E 023°46'0 0.0
2015-Jul-02 06:10N 37°48' E 023°46'0 0.0
2015-Jul-01 14:31N 37°48' E 023°46'0 0.0
2015-Jul-01 10:31N 37°48' E 023°46'0 0.0
2015-Jul-01 09:25N 37°48' E 023°46'0 0.0
2015-Jul-01 08:31N 37°48' E 023°46'0 0.0
2015-Jul-01 07:19N 37°48' E 023°46'0 0.0
2015-Jun-30 13:20N 37°48' E 023°46'0 0.0
2015-Jun-30 09:11N 37°48' E 023°46'0 0.0
2015-Jun-30 08:05N 37°48' E 023°46'0 0.0
2015-Jun-30 07:32N 37°48' E 023°46'0 0.0
2015-Jun-30 06:32N 37°48' E 023°46'0 0.0
2015-Jun-29 17:29N 37°48' E 023°46'0 0.0
2015-Jun-29 15:11N 37°48' E 023°46'0 0.0
2015-Jun-29 14:05N 37°48' E 023°46'0 0.0
2015-Jun-29 11:29N 37°48' E 023°46'  

Dump ship's entire track history